Accueil
METAR-TAF:

METAR-TAF

Aéroports :

Aéroport de Lamezia Terme

Lamezia Terme, Italie

latitude: 38-54N, longitude: 016-15E, altitude: 15 m

Observation

Le bulletin a été fait il y a 40 minutes, à 00:20 UTC
Vent 4 kt de est
Température 23°C
Humidité 61%
Pression 1014 hPa
Visibilité 10 km ou plus

METAR: LICA 040020Z AUTO 10004KT 9999 NCD 23/15 Q1014

Heure: 03:00 (01:00 UTC)

Prévision

Le bulletin a été fait il y a 2 heures et 0 minutes, à 23:00 UTC
Prévision valable du 04 à 00 UTC au 04 à 24 UTC
Vent 5 kt de direction variable
Visibilité 10 km ou plus
Quelques nuages à une hauteur de 3000 ft
Evoluant progressivement
du 04 à 08 UTC au 04 à 10 UTC
Vent 13 kt de ouest
Evoluant progressivement
du 04 à 17 UTC au 04 à 19 UTC
Vent 5 kt de direction variable

TAF: LICA 032300Z 0400/0424 VRB05KT 9999 FEW030 BECMG 0408/0410 27013KT BECMG 0417/0419 VRB05KT

Observations et prévisions météorologiques de plus de 4000 aéroports (messages METAR et TAF).

Les stations disponibles sont représentées par des disques jaunes et rouges sur la carte.

Passer la souris dessus pour voir le nom de la station.

Cliquer dessus pour voir les observations et prévisions météorologiques.

Pour changer de carte: cliquez sur les boutons verts avec une croix noire pour zoomer, sur le bouton vert avec un tiret pour effectuer un zoom arrière, ou sur les flèches vertes pour les cartes adjacentes.


METAR-TAF: